createdAt,value
2018-11-22T00:02:44.603Z,997.85
2018-11-22T00:12:44.575Z,997.82
2018-11-22T00:22:44.508Z,997.89
2018-11-22T00:32:47.483Z,997.90
2018-11-22T00:42:44.569Z,997.86
2018-11-22T00:52:44.640Z,997.91
2018-11-22T01:02:44.508Z,997.91
2018-11-22T01:12:44.603Z,997.93
2018-11-22T01:22:44.575Z,997.88
2018-11-22T01:32:44.559Z,998.02
2018-11-22T01:42:44.493Z,998.00
2018-11-22T01:52:44.544Z,997.96
2018-11-22T02:02:44.502Z,997.90
2018-11-22T02:12:44.622Z,997.89
2018-11-22T02:22:46.058Z,997.83
2018-11-22T02:32:44.573Z,997.84
2018-11-22T02:42:44.475Z,997.87
2018-11-22T02:52:44.508Z,997.89
2018-11-22T03:02:44.512Z,998.01
2018-11-22T03:12:44.490Z,997.82
2018-11-22T03:22:44.583Z,997.91
2018-11-22T03:32:44.517Z,997.90
2018-11-22T03:42:44.485Z,997.90
2018-11-22T03:52:44.481Z,997.90
2018-11-22T04:02:44.580Z,997.82
2018-11-22T04:12:45.064Z,997.76
2018-11-22T04:22:44.447Z,997.72
2018-11-22T04:32:44.453Z,997.68
2018-11-22T04:42:44.461Z,997.83
2018-11-22T04:52:44.442Z,997.77
2018-11-22T05:02:44.512Z,997.75
2018-11-22T05:12:44.464Z,997.81
2018-11-22T05:22:44.485Z,997.63
2018-11-22T05:32:44.506Z,997.62
2018-11-22T05:42:44.472Z,997.61
2018-11-22T05:52:44.493Z,997.66
2018-11-22T06:02:44.397Z,997.72
2018-11-22T06:12:44.464Z,997.59
2018-11-22T06:22:44.391Z,997.62
2018-11-22T06:32:44.477Z,997.73
2018-11-22T06:42:44.306Z,997.73
2018-11-22T06:52:44.380Z,997.87
2018-11-22T07:02:44.456Z,998.00
2018-11-22T07:12:44.704Z,997.84
2018-11-22T07:22:44.482Z,997.89
2018-11-22T07:32:44.471Z,997.93
2018-11-22T07:42:47.130Z,998.01
2018-11-22T07:52:44.552Z,997.98
2018-11-22T08:02:44.452Z,997.99
2018-11-22T08:12:44.655Z,997.91
2018-11-22T08:22:44.386Z,997.91
2018-11-22T08:32:44.522Z,997.92
2018-11-22T08:42:44.453Z,997.95
2018-11-22T08:52:44.566Z,998.04
2018-11-22T09:02:45.415Z,998.10
2018-11-22T09:12:44.432Z,998.10
2018-11-22T09:22:44.483Z,998.30
2018-11-22T09:32:45.158Z,998.33
2018-11-22T09:42:44.425Z,998.30
2018-11-22T09:52:44.453Z,998.32
2018-11-22T10:02:44.437Z,998.34
2018-11-22T10:22:51.038Z,998.37
2018-11-22T10:32:51.218Z,998.42
2018-11-22T10:42:50.546Z,998.31
2018-11-22T10:52:50.598Z,998.32
2018-11-22T11:02:50.630Z,998.41
2018-11-22T11:12:50.510Z,998.19
2018-11-22T11:22:50.719Z,998.12
2018-11-22T11:32:50.512Z,997.95
2018-11-22T11:42:50.356Z,998.01
2018-11-22T11:52:50.554Z,998.06
2018-11-22T12:02:50.516Z,997.87
2018-11-22T12:12:50.571Z,997.79
2018-11-22T12:22:50.830Z,997.73
2018-11-22T12:32:50.664Z,997.61
2018-11-22T12:42:50.633Z,997.48
2018-11-22T12:52:50.544Z,997.44
2018-11-22T13:02:50.583Z,997.43
2018-11-22T13:12:50.506Z,997.49
2018-11-22T13:22:51.637Z,997.38
2018-11-22T13:32:51.444Z,997.30
2018-11-22T13:42:51.603Z,997.36
2018-11-22T13:52:51.574Z,997.28
2018-11-22T14:02:50.673Z,997.16
2018-11-22T14:12:51.171Z,997.15
2018-11-22T14:22:53.232Z,997.11
2018-11-22T14:32:50.528Z,997.20
2018-11-22T14:42:51.242Z,997.09
2018-11-22T14:52:50.586Z,997.02
2018-11-22T15:02:51.294Z,997.12
2018-11-22T15:12:50.543Z,997.26
2018-11-22T15:22:50.576Z,997.24
2018-11-22T15:32:50.637Z,997.25
2018-11-22T15:42:50.550Z,997.34
2018-11-22T15:52:50.702Z,997.41
2018-11-22T16:02:50.588Z,997.43
2018-11-22T16:12:50.696Z,997.46
2018-11-22T16:22:50.527Z,997.62
2018-11-22T16:32:51.384Z,997.56
2018-11-22T16:42:50.560Z,997.56
2018-11-22T16:52:50.559Z,997.63
2018-11-22T17:02:50.502Z,997.68
2018-11-22T17:12:51.507Z,997.63
2018-11-22T17:22:50.496Z,997.61
2018-11-22T17:32:50.526Z,997.61
2018-11-22T17:42:50.539Z,997.66
2018-11-22T17:52:50.523Z,997.73
2018-11-22T18:02:50.643Z,997.74
2018-11-22T18:12:50.431Z,997.96
2018-11-22T18:22:50.545Z,997.98
2018-11-22T18:32:50.553Z,997.98
2018-11-22T18:42:50.463Z,998.01
2018-11-22T18:52:50.487Z,998.05
2018-11-22T19:02:50.541Z,997.97
2018-11-22T19:12:50.462Z,997.92
2018-11-22T19:22:51.071Z,998.04
2018-11-22T19:32:50.369Z,998.05
2018-11-22T19:42:50.558Z,998.00
2018-11-22T19:52:50.470Z,998.10
2018-11-22T20:02:50.487Z,997.99
2018-11-22T20:12:50.494Z,998.02
2018-11-22T20:22:50.460Z,998.02
2018-11-22T20:32:50.496Z,998.05
2018-11-22T20:42:50.515Z,998.05
2018-11-22T20:52:50.491Z,998.08
2018-11-22T21:02:50.508Z,998.14
2018-11-22T21:12:51.416Z,998.00
2018-11-22T21:22:50.439Z,998.13
2018-11-22T21:32:50.522Z,998.09
2018-11-22T21:42:51.471Z,998.07
2018-11-22T21:52:50.477Z,997.99
2018-11-22T22:02:52.809Z,998.09
2018-11-22T22:12:50.559Z,997.98
2018-11-22T22:22:50.519Z,997.96
2018-11-22T22:32:51.665Z,997.94
2018-11-22T22:42:50.492Z,997.94
2018-11-22T22:52:50.451Z,998.01
2018-11-22T23:02:50.404Z,998.03
2018-11-22T23:12:50.491Z,998.08
2018-11-22T23:22:50.383Z,998.07
2018-11-22T23:32:50.462Z,998.04
2018-11-22T23:42:50.504Z,998.07
2018-11-22T23:52:50.502Z,998.05
